sensor_id;sensor_type;location;lat;lon;timestamp;temperature;humidity
24144;DHT22;12307;50.828;6.080;2023-09-19T00:00:23;22.30;75.10
24144;DHT22;12307;50.828;6.080;2023-09-19T00:02:52;22.30;75.10
24144;DHT22;12307;50.828;6.080;2023-09-19T00:05:20;22.30;75.20
24144;DHT22;12307;50.828;6.080;2023-09-19T00:07:50;22.30;75.20
24144;DHT22;12307;50.828;6.080;2023-09-19T00:10:16;22.30;75.20
24144;DHT22;12307;50.828;6.080;2023-09-19T00:12:43;22.30;75.20
24144;DHT22;12307;50.828;6.080;2023-09-19T00:15:09;22.30;75.20
24144;DHT22;12307;50.828;6.080;2023-09-19T00:17:36;22.30;75.20
24144;DHT22;12307;50.828;6.080;2023-09-19T00:20:04;22.30;75.30
24144;DHT22;12307;50.828;6.080;2023-09-19T00:22:40;22.30;75.30
24144;DHT22;12307;50.828;6.080;2023-09-19T00:25:07;22.30;75.30
24144;DHT22;12307;50.828;6.080;2023-09-19T00:27:33;22.30;75.30
24144;DHT22;12307;50.828;6.080;2023-09-19T00:30:00;22.30;75.30
24144;DHT22;12307;50.828;6.080;2023-09-19T00:32:26;22.30;75.50
24144;DHT22;12307;50.828;6.080;2023-09-19T00:34:58;22.30;75.40
24144;DHT22;12307;50.828;6.080;2023-09-19T00:37:23;22.30;75.30
24144;DHT22;12307;50.828;6.080;2023-09-19T00:39:51;22.30;75.40
24144;DHT22;12307;50.828;6.080;2023-09-19T00:42:18;22.30;75.50
24144;DHT22;12307;50.828;6.080;2023-09-19T00:44:46;22.30;75.40
24144;DHT22;12307;50.828;6.080;2023-09-19T00:47:12;22.30;75.40
24144;DHT22;12307;50.828;6.080;2023-09-19T00:49:42;22.20;75.40
24144;DHT22;12307;50.828;6.080;2023-09-19T00:52:08;22.20;75.40
24144;DHT22;12307;50.828;6.080;2023-09-19T00:54:36;22.20;75.40
24144;DHT22;12307;50.828;6.080;2023-09-19T00:57:04;22.20;75.50
24144;DHT22;12307;50.828;6.080;2023-09-19T00:59:29;22.20;75.50
24144;DHT22;12307;50.828;6.080;2023-09-19T01:01:56;22.20;75.50
24144;DHT22;12307;50.828;6.080;2023-09-19T01:04:22;22.20;75.50
24144;DHT22;12307;50.828;6.080;2023-09-19T01:06:48;22.20;75.50
24144;DHT22;12307;50.828;6.080;2023-09-19T01:09:18;22.20;75.60
24144;DHT22;12307;50.828;6.080;2023-09-19T01:11:46;22.20;75.60
24144;DHT22;12307;50.828;6.080;2023-09-19T01:14:20;22.20;75.60
24144;DHT22;12307;50.828;6.080;2023-09-19T01:16:59;22.20;75.60
24144;DHT22;12307;50.828;6.080;2023-09-19T01:20:10;22.20;75.70
24144;DHT22;12307;50.828;6.080;2023-09-19T01:22:46;22.20;75.70
24144;DHT22;12307;50.828;6.080;2023-09-19T01:25:34;22.10;75.70
24144;DHT22;12307;50.828;6.080;2023-09-19T01:28:15;22.10;75.70
24144;DHT22;12307;50.828;6.080;2023-09-19T01:30:44;22.10;75.70
24144;DHT22;12307;50.828;6.080;2023-09-19T01:33:11;22.10;75.70
24144;DHT22;12307;50.828;6.080;2023-09-19T01:35:37;22.10;75.80
24144;DHT22;12307;50.828;6.080;2023-09-19T01:38:04;22.10;75.80
24144;DHT22;12307;50.828;6.080;2023-09-19T01:40:30;22.10;75.90
24144;DHT22;12307;50.828;6.080;2023-09-19T01:42:58;22.10;75.90
24144;DHT22;12307;50.828;6.080;2023-09-19T01:45:32;22.10;75.90
24144;DHT22;12307;50.828;6.080;2023-09-19T01:48:15;22.00;75.90
24144;DHT22;12307;50.828;6.080;2023-09-19T01:50:52;22.00;75.90
24144;DHT22;12307;50.828;6.080;2023-09-19T01:53:24;22.00;75.90
24144;DHT22;12307;50.828;6.080;2023-09-19T01:55:54;22.00;76.00
24144;DHT22;12307;50.828;6.080;2023-09-19T01:58:25;22.00;76.80
24144;DHT22;12307;50.828;6.080;2023-09-19T02:00:55;22.00;76.00
24144;DHT22;12307;50.828;6.080;2023-09-19T02:03:24;22.00;76.00
24144;DHT22;12307;50.828;6.080;2023-09-19T02:05:50;22.00;76.00
24144;DHT22;12307;50.828;6.080;2023-09-19T02:08:17;22.00;76.10
24144;DHT22;12307;50.828;6.080;2023-09-19T02:10:44;22.00;76.10
24144;DHT22;12307;50.828;6.080;2023-09-19T02:13:15;22.00;76.10
24144;DHT22;12307;50.828;6.080;2023-09-19T02:15:41;22.00;76.10
24144;DHT22;12307;50.828;6.080;2023-09-19T02:18:07;22.00;76.20
24144;DHT22;12307;50.828;6.080;2023-09-19T02:20:34;22.00;76.50
24144;DHT22;12307;50.828;6.080;2023-09-19T02:22:59;22.00;76.20
24144;DHT22;12307;50.828;6.080;2023-09-19T02:25:26;21.90;76.20
24144;DHT22;12307;50.828;6.080;2023-09-19T02:27:52;21.90;76.20
24144;DHT22;12307;50.828;6.080;2023-09-19T02:30:19;21.90;76.20
24144;DHT22;12307;50.828;6.080;2023-09-19T02:32:48;21.90;76.20
24144;DHT22;12307;50.828;6.080;2023-09-19T02:35:15;21.90;76.20
24144;DHT22;12307;50.828;6.080;2023-09-19T02:37:46;21.90;76.30
24144;DHT22;12307;50.828;6.080;2023-09-19T02:40:12;21.90;76.30
24144;DHT22;12307;50.828;6.080;2023-09-19T02:42:48;21.90;76.30
24144;DHT22;12307;50.828;6.080;2023-09-19T02:45:15;21.90;76.30
24144;DHT22;12307;50.828;6.080;2023-09-19T02:47:43;21.90;76.30
24144;DHT22;12307;50.828;6.080;2023-09-19T02:50:09;21.90;76.50
24144;DHT22;12307;50.828;6.080;2023-09-19T02:52:38;21.90;76.40
24144;DHT22;12307;50.828;6.080;2023-09-19T02:55:05;21.80;76.30
24144;DHT22;12307;50.828;6.080;2023-09-19T02:57:31;21.80;76.40
24144;DHT22;12307;50.828;6.080;2023-09-19T02:59:58;21.80;76.40
24144;DHT22;12307;50.828;6.080;2023-09-19T03:02:25;21.80;76.40
24144;DHT22;12307;50.828;6.080;2023-09-19T03:04:53;21.80;76.40
24144;DHT22;12307;50.828;6.080;2023-09-19T03:07:19;21.80;76.40
24144;DHT22;12307;50.828;6.080;2023-09-19T03:09:44;21.80;76.50
24144;DHT22;12307;50.828;6.080;2023-09-19T03:12:12;21.80;76.50
24144;DHT22;12307;50.828;6.080;2023-09-19T03:14:41;21.80;76.50
24144;DHT22;12307;50.828;6.080;2023-09-19T03:17:07;21.80;76.50
24144;DHT22;12307;50.828;6.080;2023-09-19T03:19:34;21.80;76.50
24144;DHT22;12307;50.828;6.080;2023-09-19T03:22:00;21.80;76.50
24144;DHT22;12307;50.828;6.080;2023-09-19T03:24:26;21.80;76.60
24144;DHT22;12307;50.828;6.080;2023-09-19T03:26:52;21.80;76.60
24144;DHT22;12307;50.828;6.080;2023-09-19T03:29:19;21.80;76.70
24144;DHT22;12307;50.828;6.080;2023-09-19T03:31:45;21.80;76.60
24144;DHT22;12307;50.828;6.080;2023-09-19T03:34:11;21.80;76.60
24144;DHT22;12307;50.828;6.080;2023-09-19T03:36:37;21.80;76.70
24144;DHT22;12307;50.828;6.080;2023-09-19T03:39:02;21.80;76.70
24144;DHT22;12307;50.828;6.080;2023-09-19T03:41:31;21.70;76.70
24144;DHT22;12307;50.828;6.080;2023-09-19T03:43:57;21.70;76.70
24144;DHT22;12307;50.828;6.080;2023-09-19T03:46:24;21.70;76.70
24144;DHT22;12307;50.828;6.080;2023-09-19T03:48:50;21.70;76.70
24144;DHT22;12307;50.828;6.080;2023-09-19T03:51:16;21.70;76.70
24144;DHT22;12307;50.828;6.080;2023-09-19T03:53:41;21.70;76.70
24144;DHT22;12307;50.828;6.080;2023-09-19T03:56:07;21.70;76.70
24144;DHT22;12307;50.828;6.080;2023-09-19T03:58:33;21.70;76.70
24144;DHT22;12307;50.828;6.080;2023-09-19T04:01:03;21.70;76.80
24144;DHT22;12307;50.828;6.080;2023-09-19T04:03:30;21.70;76.80
24144;DHT22;12307;50.828;6.080;2023-09-19T04:06:10;21.70;76.80
24144;DHT22;12307;50.828;6.080;2023-09-19T04:08:36;21.70;76.80
24144;DHT22;12307;50.828;6.080;2023-09-19T04:11:02;21.70;76.80
24144;DHT22;12307;50.828;6.080;2023-09-19T04:13:28;21.70;76.90
24144;DHT22;12307;50.828;6.080;2023-09-19T04:15:54;21.70;76.90
24144;DHT22;12307;50.828;6.080;2023-09-19T04:18:19;21.70;76.80
24144;DHT22;12307;50.828;6.080;2023-09-19T04:20:49;21.70;76.80
24144;DHT22;12307;50.828;6.080;2023-09-19T04:23:15;21.70;76.90
24144;DHT22;12307;50.828;6.080;2023-09-19T04:25:40;21.60;76.90
24144;DHT22;12307;50.828;6.080;2023-09-19T04:28:06;21.60;76.80
24144;DHT22;12307;50.828;6.080;2023-09-19T04:30:32;21.60;76.80
24144;DHT22;12307;50.828;6.080;2023-09-19T04:32:58;21.60;76.90
24144;DHT22;12307;50.828;6.080;2023-09-19T04:35:24;21.60;76.90
24144;DHT22;12307;50.828;6.080;2023-09-19T04:37:53;21.60;77.00
24144;DHT22;12307;50.828;6.080;2023-09-19T04:40:20;21.60;77.00
24144;DHT22;12307;50.828;6.080;2023-09-19T04:42:53;21.60;77.00
24144;DHT22;12307;50.828;6.080;2023-09-19T04:45:22;21.60;77.00
24144;DHT22;12307;50.828;6.080;2023-09-19T04:47:48;21.60;77.00
24144;DHT22;12307;50.828;6.080;2023-09-19T04:50:13;21.60;77.00
24144;DHT22;12307;50.828;6.080;2023-09-19T04:52:40;21.60;77.00
24144;DHT22;12307;50.828;6.080;2023-09-19T04:55:09;21.60;77.00
24144;DHT22;12307;50.828;6.080;2023-09-19T04:57:35;21.60;77.00
24144;DHT22;12307;50.828;6.080;2023-09-19T05:00:02;21.60;77.00
24144;DHT22;12307;50.828;6.080;2023-09-19T05:02:32;21.50;77.00
24144;DHT22;12307;50.828;6.080;2023-09-19T05:05:00;21.60;77.00
24144;DHT22;12307;50.828;6.080;2023-09-19T05:07:26;21.60;77.00
24144;DHT22;12307;50.828;6.080;2023-09-19T05:09:51;21.60;77.00
24144;DHT22;12307;50.828;6.080;2023-09-19T05:12:18;21.60;77.00
24144;DHT22;12307;50.828;6.080;2023-09-19T05:14:45;21.50;77.00
24144;DHT22;12307;50.828;6.080;2023-09-19T05:17:10;21.60;77.00
24144;DHT22;12307;50.828;6.080;2023-09-19T05:19:36;21.50;77.00
24144;DHT22;12307;50.828;6.080;2023-09-19T05:22:03;21.60;77.00
24144;DHT22;12307;50.828;6.080;2023-09-19T05:24:29;21.50;77.00
24144;DHT22;12307;50.828;6.080;2023-09-19T05:26:56;21.50;77.00
24144;DHT22;12307;50.828;6.080;2023-09-19T05:29:23;21.50;77.00
24144;DHT22;12307;50.828;6.080;2023-09-19T05:31:49;21.50;77.00
24144;DHT22;12307;50.828;6.080;2023-09-19T05:34:16;21.50;77.00
24144;DHT22;12307;50.828;6.080;2023-09-19T05:36:42;21.50;77.00
24144;DHT22;12307;50.828;6.080;2023-09-19T05:39:08;21.50;77.00
24144;DHT22;12307;50.828;6.080;2023-09-19T05:41:35;21.50;77.00
24144;DHT22;12307;50.828;6.080;2023-09-19T05:44:02;21.50;77.00
24144;DHT22;12307;50.828;6.080;2023-09-19T05:46:29;21.50;77.00
24144;DHT22;12307;50.828;6.080;2023-09-19T05:48:55;21.50;77.00
24144;DHT22;12307;50.828;6.080;2023-09-19T05:51:22;21.50;77.00
24144;DHT22;12307;50.828;6.080;2023-09-19T05:53:48;21.50;77.00
24144;DHT22;12307;50.828;6.080;2023-09-19T05:56:14;21.50;77.00
24144;DHT22;12307;50.828;6.080;2023-09-19T05:58:40;21.50;77.00
24144;DHT22;12307;50.828;6.080;2023-09-19T06:01:08;21.50;77.00
24144;DHT22;12307;50.828;6.080;2023-09-19T06:03:36;21.50;77.00
24144;DHT22;12307;50.828;6.080;2023-09-19T06:06:02;21.50;77.00
24144;DHT22;12307;50.828;6.080;2023-09-19T06:08:28;21.50;77.00
24144;DHT22;12307;50.828;6.080;2023-09-19T06:10:54;21.50;77.00
24144;DHT22;12307;50.828;6.080;2023-09-19T06:13:20;21.50;77.00
24144;DHT22;12307;50.828;6.080;2023-09-19T06:15:45;21.50;77.00
24144;DHT22;12307;50.828;6.080;2023-09-19T06:18:12;21.50;76.90
24144;DHT22;12307;50.828;6.080;2023-09-19T06:20:46;21.50;76.90
24144;DHT22;12307;50.828;6.080;2023-09-19T06:23:12;21.50;77.00
24144;DHT22;12307;50.828;6.080;2023-09-19T06:25:38;21.50;77.00
24144;DHT22;12307;50.828;6.080;2023-09-19T06:28:04;21.60;77.00
24144;DHT22;12307;50.828;6.080;2023-09-19T06:30:31;21.60;77.00
24144;DHT22;12307;50.828;6.080;2023-09-19T06:32:58;21.60;77.00
24144;DHT22;12307;50.828;6.080;2023-09-19T06:35:24;21.60;77.00
24144;DHT22;12307;50.828;6.080;2023-09-19T06:37:53;21.60;76.90
24144;DHT22;12307;50.828;6.080;2023-09-19T06:40:19;21.60;76.90
24144;DHT22;12307;50.828;6.080;2023-09-19T06:42:46;21.60;76.80
24144;DHT22;12307;50.828;6.080;2023-09-19T06:45:12;21.60;76.80
24144;DHT22;12307;50.828;6.080;2023-09-19T06:47:39;21.60;76.80
24144;DHT22;12307;50.828;6.080;2023-09-19T06:50:05;21.60;76.80
24144;DHT22;12307;50.828;6.080;2023-09-19T06:52:34;21.60;76.70
24144;DHT22;12307;50.828;6.080;2023-09-19T06:55:02;21.70;76.60
24144;DHT22;12307;50.828;6.080;2023-09-19T06:57:28;21.70;76.60
24144;DHT22;12307;50.828;6.080;2023-09-19T06:59:56;21.70;76.50
24144;DHT22;12307;50.828;6.080;2023-09-19T07:02:21;21.70;76.40
24144;DHT22;12307;50.828;6.080;2023-09-19T07:04:47;21.70;76.30
24144;DHT22;12307;50.828;6.080;2023-09-19T07:07:14;21.70;76.30
24144;DHT22;12307;50.828;6.080;2023-09-19T07:09:40;21.70;76.10
24144;DHT22;12307;50.828;6.080;2023-09-19T07:12:09;21.70;76.10
24144;DHT22;12307;50.828;6.080;2023-09-19T07:14:34;21.70;76.00
24144;DHT22;12307;50.828;6.080;2023-09-19T07:17:00;21.80;76.00
24144;DHT22;12307;50.828;6.080;2023-09-19T07:19:27;21.80;75.80
24144;DHT22;12307;50.828;6.080;2023-09-19T07:21:57;21.80;75.70
24144;DHT22;12307;50.828;6.080;2023-09-19T07:24:24;21.80;75.60
24144;DHT22;12307;50.828;6.080;2023-09-19T07:26:53;21.80;75.50
24144;DHT22;12307;50.828;6.080;2023-09-19T07:29:20;21.80;75.30
24144;DHT22;12307;50.828;6.080;2023-09-19T07:31:45;21.90;75.30
24144;DHT22;12307;50.828;6.080;2023-09-19T07:34:12;21.80;75.00
24144;DHT22;12307;50.828;6.080;2023-09-19T07:36:39;21.90;75.00
24144;DHT22;12307;50.828;6.080;2023-09-19T07:39:05;21.90;74.80
24144;DHT22;12307;50.828;6.080;2023-09-19T07:41:32;22.00;74.70
24144;DHT22;12307;50.828;6.080;2023-09-19T07:43:58;22.00;74.60
24144;DHT22;12307;50.828;6.080;2023-09-19T07:46:25;22.00;74.40
24144;DHT22;12307;50.828;6.080;2023-09-19T07:48:51;22.10;74.30
24144;DHT22;12307;50.828;6.080;2023-09-19T07:51:17;22.10;74.10
24144;DHT22;12307;50.828;6.080;2023-09-19T07:53:43;22.20;74.00
24144;DHT22;12307;50.828;6.080;2023-09-19T07:56:09;22.20;73.80
24144;DHT22;12307;50.828;6.080;2023-09-19T07:58:35;22.20;73.60
24144;DHT22;12307;50.828;6.080;2023-09-19T08:01:03;22.30;73.60
24144;DHT22;12307;50.828;6.080;2023-09-19T08:03:30;22.20;73.30
24144;DHT22;12307;50.828;6.080;2023-09-19T08:05:56;22.30;73.20
24144;DHT22;12307;50.828;6.080;2023-09-19T08:08:23;22.40;73.00
24144;DHT22;12307;50.828;6.080;2023-09-19T08:10:52;22.40;72.80
24144;DHT22;12307;50.828;6.080;2023-09-19T08:13:18;22.40;72.70
24144;DHT22;12307;50.828;6.080;2023-09-19T08:15:44;22.50;72.60
24144;DHT22;12307;50.828;6.080;2023-09-19T08:18:10;22.50;72.40
24144;DHT22;12307;50.828;6.080;2023-09-19T08:20:38;22.50;72.20
24144;DHT22;12307;50.828;6.080;2023-09-19T08:23:08;22.50;72.10
24144;DHT22;12307;50.828;6.080;2023-09-19T08:25:34;22.60;71.90
24144;DHT22;12307;50.828;6.080;2023-09-19T08:28:00;22.60;71.80
24144;DHT22;12307;50.828;6.080;2023-09-19T08:30:27;22.60;71.60
24144;DHT22;12307;50.828;6.080;2023-09-19T08:32:57;22.60;71.30
24144;DHT22;12307;50.828;6.080;2023-09-19T08:35:24;22.70;71.30
24144;DHT22;12307;50.828;6.080;2023-09-19T08:37:51;22.70;71.10
24144;DHT22;12307;50.828;6.080;2023-09-19T08:40:17;22.70;70.90
24144;DHT22;12307;50.828;6.080;2023-09-19T08:42:50;22.80;70.90
24144;DHT22;12307;50.828;6.080;2023-09-19T08:45:16;22.80;70.70
24144;DHT22;12307;50.828;6.080;2023-09-19T08:47:46;22.80;70.50
24144;DHT22;12307;50.828;6.080;2023-09-19T08:50:19;22.90;70.40
24144;DHT22;12307;50.828;6.080;2023-09-19T08:52:51;22.90;70.20
24144;DHT22;12307;50.828;6.080;2023-09-19T08:55:19;23.00;70.10
24144;DHT22;12307;50.828;6.080;2023-09-19T08:57:49;23.00;70.00
24144;DHT22;12307;50.828;6.080;2023-09-19T09:00:16;23.10;70.00
24144;DHT22;12307;50.828;6.080;2023-09-19T09:02:47;23.10;69.80
24144;DHT22;12307;50.828;6.080;2023-09-19T09:05:15;23.10;69.60
24144;DHT22;12307;50.828;6.080;2023-09-19T09:07:42;23.20;69.50
24144;DHT22;12307;50.828;6.080;2023-09-19T09:10:10;23.20;69.30
24144;DHT22;12307;50.828;6.080;2023-09-19T09:12:37;23.30;69.20
24144;DHT22;12307;50.828;6.080;2023-09-19T09:15:05;23.30;69.80
24144;DHT22;12307;50.828;6.080;2023-09-19T09:17:31;23.40;68.80
24144;DHT22;12307;50.828;6.080;2023-09-19T09:19:57;23.40;68.60
24144;DHT22;12307;50.828;6.080;2023-09-19T09:22:24;23.40;68.50
24144;DHT22;12307;50.828;6.080;2023-09-19T09:24:53;23.40;68.20
24144;DHT22;12307;50.828;6.080;2023-09-19T09:27:21;23.50;68.10
24144;DHT22;12307;50.828;6.080;2023-09-19T09:29:50;23.50;67.90
24144;DHT22;12307;50.828;6.080;2023-09-19T09:32:17;23.50;67.70
24144;DHT22;12307;50.828;6.080;2023-09-19T09:34:45;23.50;67.50
24144;DHT22;12307;50.828;6.080;2023-09-19T09:37:13;23.60;67.30
24144;DHT22;12307;50.828;6.080;2023-09-19T09:39:40;23.60;67.20
24144;DHT22;12307;50.828;6.080;2023-09-19T09:42:30;23.60;67.00
24144;DHT22;12307;50.828;6.080;2023-09-19T09:45:17;23.60;66.80
24144;DHT22;12307;50.828;6.080;2023-09-19T09:47:44;23.70;66.70
24144;DHT22;12307;50.828;6.080;2023-09-19T09:50:28;23.60;66.50
24144;DHT22;12307;50.828;6.080;2023-09-19T09:53:23;23.70;66.30
24144;DHT22;12307;50.828;6.080;2023-09-19T09:55:58;23.80;66.00
24144;DHT22;12307;50.828;6.080;2023-09-19T09:58:29;23.80;65.80
24144;DHT22;12307;50.828;6.080;2023-09-19T10:00:55;23.80;65.70
24144;DHT22;12307;50.828;6.080;2023-09-19T10:03:31;23.80;65.50
24144;DHT22;12307;50.828;6.080;2023-09-19T10:05:58;23.90;65.40
24144;DHT22;12307;50.828;6.080;2023-09-19T10:08:34;23.90;65.20
24144;DHT22;12307;50.828;6.080;2023-09-19T10:11:01;23.90;65.00
24144;DHT22;12307;50.828;6.080;2023-09-19T10:13:43;23.90;64.80
24144;DHT22;12307;50.828;6.080;2023-09-19T10:16:12;23.90;64.70
24144;DHT22;12307;50.828;6.080;2023-09-19T10:18:41;23.90;64.60
24144;DHT22;12307;50.828;6.080;2023-09-19T10:21:10;23.90;64.50
24144;DHT22;12307;50.828;6.080;2023-09-19T10:23:36;23.90;64.40
24144;DHT22;12307;50.828;6.080;2023-09-19T10:26:03;23.90;64.40
24144;DHT22;12307;50.828;6.080;2023-09-19T10:28:30;23.90;64.20
24144;DHT22;12307;50.828;6.080;2023-09-19T10:31:00;23.90;64.10
24144;DHT22;12307;50.828;6.080;2023-09-19T10:33:26;23.90;64.00
24144;DHT22;12307;50.828;6.080;2023-09-19T10:35:52;24.00;64.80
24144;DHT22;12307;50.828;6.080;2023-09-19T10:38:23;24.00;63.90
24144;DHT22;12307;50.828;6.080;2023-09-19T10:40:50;24.00;64.80
24144;DHT22;12307;50.828;6.080;2023-09-19T10:43:18;24.00;63.90
24144;DHT22;12307;50.828;6.080;2023-09-19T10:45:44;24.00;63.90
24144;DHT22;12307;50.828;6.080;2023-09-19T10:48:11;24.00;63.70
24144;DHT22;12307;50.828;6.080;2023-09-19T10:50:44;24.00;63.70
24144;DHT22;12307;50.828;6.080;2023-09-19T10:53:12;24.00;63.60
24144;DHT22;12307;50.828;6.080;2023-09-19T10:55:39;24.00;63.50
24144;DHT22;12307;50.828;6.080;2023-09-19T10:58:06;24.00;63.50
24144;DHT22;12307;50.828;6.080;2023-09-19T11:00:51;24.00;63.40
24144;DHT22;12307;50.828;6.080;2023-09-19T11:03:21;24.00;63.30
24144;DHT22;12307;50.828;6.080;2023-09-19T11:06:05;24.00;63.40
24144;DHT22;12307;50.828;6.080;2023-09-19T11:08:58;24.00;63.20
24144;DHT22;12307;50.828;6.080;2023-09-19T11:11:43;24.10;63.20
24144;DHT22;12307;50.828;6.080;2023-09-19T11:14:16;24.00;63.20
24144;DHT22;12307;50.828;6.080;2023-09-19T11:17:30;24.00;64.00
24144;DHT22;12307;50.828;6.080;2023-09-19T11:20:20;24.00;63.10
24144;DHT22;12307;50.828;6.080;2023-09-19T11:23:28;24.10;63.20
24144;DHT22;12307;50.828;6.080;2023-09-19T11:25:56;24.10;63.00
24144;DHT22;12307;50.828;6.080;2023-09-19T11:28:35;24.10;62.90
24144;DHT22;12307;50.828;6.080;2023-09-19T11:31:42;24.20;62.80
24144;DHT22;12307;50.828;6.080;2023-09-19T11:34:43;24.30;62.60
24144;DHT22;12307;50.828;6.080;2023-09-19T11:40:27;24.40;62.60
24144;DHT22;12307;50.828;6.080;2023-09-19T11:42:54;24.50;62.10
24144;DHT22;12307;50.828;6.080;2023-09-19T11:48:24;24.80;61.60
24144;DHT22;12307;50.828;6.080;2023-09-19T11:50:53;24.90;61.30
24144;DHT22;12307;50.828;6.080;2023-09-19T11:53:20;25.00;61.10
24144;DHT22;12307;50.828;6.080;2023-09-19T11:55:48;25.10;60.80
24144;DHT22;12307;50.828;6.080;2023-09-19T11:58:15;25.30;60.60
24144;DHT22;12307;50.828;6.080;2023-09-19T12:00:43;25.40;60.30
24144;DHT22;12307;50.828;6.080;2023-09-19T12:03:11;25.50;60.20
24144;DHT22;12307;50.828;6.080;2023-09-19T12:05:37;25.50;59.80
24144;DHT22;12307;50.828;6.080;2023-09-19T12:08:03;25.60;59.80
24144;DHT22;12307;50.828;6.080;2023-09-19T12:10:30;25.60;59.60
24144;DHT22;12307;50.828;6.080;2023-09-19T12:12:58;25.60;59.50
24144;DHT22;12307;50.828;6.080;2023-09-19T12:15:25;25.70;59.30
24144;DHT22;12307;50.828;6.080;2023-09-19T12:17:59;25.70;59.10
24144;DHT22;12307;50.828;6.080;2023-09-19T12:20:39;25.60;58.80
24144;DHT22;12307;50.828;6.080;2023-09-19T12:23:12;25.60;58.80
24144;DHT22;12307;50.828;6.080;2023-09-19T12:25:41;25.50;58.60
24144;DHT22;12307;50.828;6.080;2023-09-19T12:28:13;25.40;58.60
24144;DHT22;12307;50.828;6.080;2023-09-19T12:30:39;25.40;58.60
24144;DHT22;12307;50.828;6.080;2023-09-19T12:33:15;25.20;58.50
24144;DHT22;12307;50.828;6.080;2023-09-19T12:35:41;25.10;58.40
24144;DHT22;12307;50.828;6.080;2023-09-19T12:38:09;25.10;58.50
24144;DHT22;12307;50.828;6.080;2023-09-19T12:40:35;25.00;58.50
24144;DHT22;12307;50.828;6.080;2023-09-19T12:43:03;24.90;58.50
24144;DHT22;12307;50.828;6.080;2023-09-19T12:45:32;24.90;58.50
24144;DHT22;12307;50.828;6.080;2023-09-19T12:48:20;24.80;58.40
24144;DHT22;12307;50.828;6.080;2023-09-19T12:51:02;24.80;58.40
24144;DHT22;12307;50.828;6.080;2023-09-19T12:53:33;24.70;58.40
24144;DHT22;12307;50.828;6.080;2023-09-19T12:56:01;24.70;58.50
24144;DHT22;12307;50.828;6.080;2023-09-19T12:58:31;24.70;58.50
24144;DHT22;12307;50.828;6.080;2023-09-19T13:00:59;24.60;58.40
24144;DHT22;12307;50.828;6.080;2023-09-19T13:03:26;24.60;58.40
24144;DHT22;12307;50.828;6.080;2023-09-19T13:05:55;24.60;58.30
24144;DHT22;12307;50.828;6.080;2023-09-19T13:08:26;24.50;58.20
24144;DHT22;12307;50.828;6.080;2023-09-19T13:11:04;24.50;58.10
24144;DHT22;12307;50.828;6.080;2023-09-19T13:13:42;24.50;58.10
24144;DHT22;12307;50.828;6.080;2023-09-19T13:16:11;24.50;58.10
24144;DHT22;12307;50.828;6.080;2023-09-19T14:14:33;24.10;58.90
24144;DHT22;12307;50.828;6.080;2023-09-19T14:24:59;24.00;59.00
24144;DHT22;12307;50.828;6.080;2023-09-19T15:48:08;23.60;59.90
24144;DHT22;12307;50.828;6.080;2023-09-19T16:10:47;23.50;60.10
24144;DHT22;12307;50.828;6.080;2023-09-19T16:50:47;23.30;61.30
24144;DHT22;12307;50.828;6.080;2023-09-19T18:13:29;22.60;64.40
24144;DHT22;12307;50.828;6.080;2023-09-19T19:13:24;22.40;65.60
24144;DHT22;12307;50.828;6.080;2023-09-19T19:29:38;22.30;65.90
24144;DHT22;12307;50.828;6.080;2023-09-19T19:57:43;22.30;66.50
24144;DHT22;12307;50.828;6.080;2023-09-19T20:00:10;22.20;66.50
24144;DHT22;12307;50.828;6.080;2023-09-19T20:02:37;22.20;66.50
24144;DHT22;12307;50.828;6.080;2023-09-19T20:05:03;22.30;66.60
24144;DHT22;12307;50.828;6.080;2023-09-19T20:07:32;22.20;66.60
24144;DHT22;12307;50.828;6.080;2023-09-19T20:09:58;22.20;66.70
24144;DHT22;12307;50.828;6.080;2023-09-19T20:12:23;22.20;66.80
24144;DHT22;12307;50.828;6.080;2023-09-19T20:14:51;22.20;66.80
24144;DHT22;12307;50.828;6.080;2023-09-19T20:17:17;22.20;66.90
24144;DHT22;12307;50.828;6.080;2023-09-19T20:19:43;22.20;66.90
24144;DHT22;12307;50.828;6.080;2023-09-19T20:22:10;22.20;66.90
24144;DHT22;12307;50.828;6.080;2023-09-19T20:24:38;22.10;66.90
24144;DHT22;12307;50.828;6.080;2023-09-19T20:27:04;22.20;67.00
24144;DHT22;12307;50.828;6.080;2023-09-19T20:29:33;22.20;67.10
24144;DHT22;12307;50.828;6.080;2023-09-19T20:32:00;22.20;67.10
24144;DHT22;12307;50.828;6.080;2023-09-19T20:34:26;22.20;67.10
24144;DHT22;12307;50.828;6.080;2023-09-19T20:36:52;22.10;67.10
24144;DHT22;12307;50.828;6.080;2023-09-19T20:39:17;22.10;67.30
24144;DHT22;12307;50.828;6.080;2023-09-19T20:41:48;22.10;67.20
24144;DHT22;12307;50.828;6.080;2023-09-19T20:44:14;22.20;67.30
24144;DHT22;12307;50.828;6.080;2023-09-19T20:46:39;22.20;67.30
24144;DHT22;12307;50.828;6.080;2023-09-19T20:49:07;22.20;67.30
24144;DHT22;12307;50.828;6.080;2023-09-19T20:51:33;22.10;67.40
24144;DHT22;12307;50.828;6.080;2023-09-19T20:54:00;22.10;67.40
24144;DHT22;12307;50.828;6.080;2023-09-19T20:56:26;22.10;67.40
24144;DHT22;12307;50.828;6.080;2023-09-19T20:58:52;22.10;67.50
24144;DHT22;12307;50.828;6.080;2023-09-19T21:01:18;22.10;67.50
24144;DHT22;12307;50.828;6.080;2023-09-19T21:03:45;22.10;67.50
24144;DHT22;12307;50.828;6.080;2023-09-19T21:06:12;22.10;67.50
24144;DHT22;12307;50.828;6.080;2023-09-19T21:08:40;22.10;67.60
24144;DHT22;12307;50.828;6.080;2023-09-19T21:11:11;22.10;67.70
24144;DHT22;12307;50.828;6.080;2023-09-19T21:13:38;22.10;67.70
24144;DHT22;12307;50.828;6.080;2023-09-19T21:16:04;22.00;67.70
24144;DHT22;12307;50.828;6.080;2023-09-19T21:18:30;22.10;67.80
24144;DHT22;12307;50.828;6.080;2023-09-19T21:21:00;22.10;67.80
24144;DHT22;12307;50.828;6.080;2023-09-19T21:23:28;22.10;67.80
24144;DHT22;12307;50.828;6.080;2023-09-19T21:25:55;22.10;67.90
24144;DHT22;12307;50.828;6.080;2023-09-19T21:28:21;22.00;67.80
24144;DHT22;12307;50.828;6.080;2023-09-19T21:30:56;22.10;67.90
24144;DHT22;12307;50.828;6.080;2023-09-19T21:33:22;22.10;68.00
24144;DHT22;12307;50.828;6.080;2023-09-19T21:35:48;22.00;67.90
24144;DHT22;12307;50.828;6.080;2023-09-19T21:38:13;22.00;67.90
24144;DHT22;12307;50.828;6.080;2023-09-19T21:40:40;22.00;68.00
24144;DHT22;12307;50.828;6.080;2023-09-19T21:43:06;22.00;68.10
24144;DHT22;12307;50.828;6.080;2023-09-19T21:45:33;22.00;68.10
24144;DHT22;12307;50.828;6.080;2023-09-19T21:47:59;22.00;68.20
24144;DHT22;12307;50.828;6.080;2023-09-19T21:50:24;22.00;68.20
24144;DHT22;12307;50.828;6.080;2023-09-19T21:52:50;22.00;68.20
24144;DHT22;12307;50.828;6.080;2023-09-19T21:55:16;22.00;68.20
24144;DHT22;12307;50.828;6.080;2023-09-19T21:57:45;22.00;68.20
24144;DHT22;12307;50.828;6.080;2023-09-19T22:00:11;22.00;68.20
24144;DHT22;12307;50.828;6.080;2023-09-19T22:02:48;22.00;68.20
24144;DHT22;12307;50.828;6.080;2023-09-19T22:05:17;22.00;68.30